Fort Bliss, Texas
Current Conditions -  °F | °C
As of 5:58 PM on Tuesday 27 Jan 2015 (Local Time) from KBIF Reporting Station
Few Clouds Few Clouds  
Wind Chill: 17°   Ceiling: Unl
Heat Index: 17°   Visibility: 10mi
Dew Point:   Wind: 3mph
Humidity: 40%   Direction: 130°SE
Pressure: 30.2"   Gusts: NA
Location:  31.8335°N, 106.423°W
Report Text: KBIF 280058Z 13003KT 10SM FEW250 17/04 A3020 RMK AO2A SLP196 T01730037 $
Loading
Personal Weather Stations






























Interactive Weather Map New forecast layout! Learn more

10-Day Weather Forecast

Advertisements
Track Severe Weather on mobile